Hlavní strana
METAR-TAF:

METAR-TAF

Letiště :

Kuusamo, Finsko

zeměpisná šířka: 65-58N, zeměpisná délka: 029-11E, výška: 262 m

Aktuální stav počasí

Zpráva byla vytvořena před 19 minutami, v 15:50 UTC
Východojihovýchodní vítr 7 kt
Teplota 6°C
Vlhkost vzduchu 100%
Tlak 1000 hPa
Viditelnost: 9000 m
Zataženo ve výšce 400 ft

METAR: EFKS 241550Z AUTO 11007KT 9000 OVC004 06/06 Q1000

Čas: 19:09 (16:09 UTC)

Předpověď počasí

Zpráva byla vytvořena před 1 hodinou a 39 minutami, v 14:30 UTC
Předpověď platná od 24 v 15 UTC do 24 v 18 UTC
Východojihovýchodní vítr 9 kt
Viditelnost 10 km a více
Zataženo ve výšce 500 ft
Dočasný
od 24 v 15 UTC do 24 v 18 UTC
Viditelnost: 3000 m
Oblačno až skoro zataženo ve výšce 300 ft
kouřmo
Pravděpodobnost 30%
od 24 v 16 UTC do 24 v 18 UTC
Viditelnost: 0800 m
ve výšce 100 ft
mlha

TAF: EFKS 241430Z 2415/2418 12009KT 9999 OVC005 TEMPO 2415/2418 3000 BR BKN003 PROB30 2416/2418 0800 FG VV001

Stav a předpovědi počasí z více než 4 000 letišť (zprávy METAR a TAF).

Červené a žluté tečky na mapě představují dostupné meteorologické stanice.

Když kurzor umístíte na tečku, zobrazí se název stanice.

Pak kliknutím zobrazíte stav a předpověď počasí.

Chcete-li změnit mapu, kliknutím na zelené tlačítko se znaménkem +mapu přiblížíte, kliknutím na zelené tlačítko se znaménkem – mapu oddálíte a kliknutím na zelené šipky přejdete na sousední mapy.


METAR-TAF: